Terminal Aerodrome Forecast
Issued by NWS

Home | Current Version | Previous Version | Text Only | Print | Product List | Glossary On
Versions: 1 2 3 4 5 6 7 8 9 10 11 12 13 14 15 16 17 18 19 20 21 22 23 24 25 26 27 28 29 30
604
FTAK31 PANC 090539
TAFAEN
TAF
PAEN 090539Z 0906/1006 04010KT P6SM SCT050 BKN060
     FM090800 02010KT 6SM -SN OVC035
      TEMPO 0908/0912 3SM -SN BKN022
     FM091400 02010KT P6SM BKN035
     FM091800 02012KT P6SM SCT035=

USA.gov is the U.S. government's official web portal to all federal, state and local government web resources and services.